createdAt,value
2019-02-25T00:00:22.345Z,103234.55
2019-02-25T00:02:59.948Z,103235.58
2019-02-25T00:05:28.719Z,103234.88
2019-02-25T00:07:57.288Z,103234.19
2019-02-25T00:10:25.716Z,103238.19
2019-02-25T00:12:54.230Z,103240.42
2019-02-25T00:15:22.820Z,103242.09
2019-02-25T00:17:51.388Z,103238.00
2019-02-25T00:20:19.862Z,103239.36
2019-02-25T00:22:48.303Z,103229.35
2019-02-25T00:25:16.761Z,103228.20
2019-02-25T00:27:45.203Z,103225.14
2019-02-25T00:30:15.306Z,103223.08
2019-02-25T00:32:44.006Z,103229.87
2019-02-25T00:35:12.607Z,103225.77
2019-02-25T00:37:41.115Z,103225.11
2019-02-25T00:40:12.645Z,103227.94
2019-02-25T00:42:41.123Z,103226.09
2019-02-25T00:45:16.652Z,103222.81
2019-02-25T00:47:45.079Z,103229.63
2019-02-25T00:50:19.509Z,103220.65
2019-02-25T00:52:48.298Z,103221.30
2019-02-25T00:55:17.075Z,103231.66
2019-02-25T00:57:45.553Z,103233.77
2019-02-25T01:00:22.816Z,103227.98
2019-02-25T01:02:51.538Z,103221.38
2019-02-25T01:05:20.013Z,103217.63
2019-02-25T01:07:48.477Z,103214.67
2019-02-25T01:10:18.792Z,103215.52
2019-02-25T01:12:47.676Z,103222.64
2019-02-25T01:15:16.789Z,103191.81
2019-02-25T01:17:45.431Z,103225.77
2019-02-25T01:20:15.569Z,103216.03
2019-02-25T01:22:44.041Z,103212.52
2019-02-25T01:25:19.125Z,103215.94
2019-02-25T01:27:47.578Z,103204.09
2019-02-25T01:30:18.618Z,103211.13
2019-02-25T01:32:47.391Z,103210.11
2019-02-25T01:35:16.164Z,103210.34
2019-02-25T01:37:44.611Z,103207.78
2019-02-25T01:40:14.390Z,103211.41
2019-02-25T01:42:42.904Z,103206.17
2019-02-25T01:45:13.867Z,103202.06
2019-02-25T01:47:42.322Z,103206.41
2019-02-25T01:50:11.719Z,103199.93
2019-02-25T01:52:40.429Z,103202.53
2019-02-25T01:55:10.635Z,103201.05
2019-02-25T01:57:39.146Z,103200.91
2019-02-25T02:00:16.226Z,103202.06
2019-02-25T02:02:44.707Z,103192.77
2019-02-25T02:05:13.581Z,103183.66
2019-02-25T02:07:42.064Z,103196.08
2019-02-25T02:10:15.371Z,103197.98
2019-02-25T02:12:43.879Z,103201.30
2019-02-25T02:15:14.672Z,103195.62
2019-02-25T02:17:43.160Z,103192.89
2019-02-25T02:20:13.804Z,103192.07
2019-02-25T02:22:42.259Z,103188.56
2019-02-25T02:25:12.040Z,103188.06
2019-02-25T02:27:40.557Z,103204.53
2019-02-25T02:30:12.134Z,103205.23
2019-02-25T02:32:40.579Z,103193.95
2019-02-25T02:35:09.297Z,103184.82
2019-02-25T02:37:37.732Z,103187.81
2019-02-25T02:40:09.031Z,103187.12
2019-02-25T02:42:37.601Z,103182.59
2019-02-25T02:45:14.900Z,103187.91
2019-02-25T02:47:52.545Z,103187.22
2019-02-25T02:50:23.032Z,103186.77
2019-02-25T02:52:51.658Z,103192.41
2019-02-25T02:55:20.174Z,103189.03
2019-02-25T02:57:48.597Z,103197.15
2019-02-25T03:00:18.707Z,103201.36
2019-02-25T03:02:47.154Z,103207.70
2019-02-25T03:05:16.946Z,103211.64
2019-02-25T03:07:45.516Z,103217.06
2019-02-25T03:10:16.274Z,103217.98
2019-02-25T03:12:45.228Z,103222.84
2019-02-25T03:15:16.078Z,103225.95
2019-02-25T03:17:44.695Z,103217.91
2019-02-25T03:20:13.621Z,103210.24
2019-02-25T03:22:42.415Z,103211.36
2019-02-25T03:25:15.620Z,103214.55
2019-02-25T03:27:44.063Z,103219.20
2019-02-25T03:30:15.627Z,103212.70
2019-02-25T03:32:44.072Z,103209.83
2019-02-25T03:35:12.645Z,103205.63
2019-02-25T03:37:41.107Z,103208.55
2019-02-25T03:40:12.567Z,103203.45
2019-02-25T03:42:41.089Z,103206.19
2019-02-25T03:45:14.155Z,103200.73
2019-02-25T03:47:42.584Z,103202.86
2019-02-25T03:50:11.175Z,103198.89
2019-02-25T03:52:39.612Z,103207.39
2019-02-25T03:55:19.103Z,103201.38
2019-02-25T03:57:47.898Z,103212.75
2019-02-25T04:00:26.206Z,103217.00
2019-02-25T04:02:54.686Z,103210.75
2019-02-25T04:05:23.225Z,103216.17
2019-02-25T04:07:51.758Z,103207.95
2019-02-25T04:10:20.220Z,103197.08
2019-02-25T04:12:48.654Z,103199.31
2019-02-25T04:15:29.578Z,103197.17
2019-02-25T04:17:58.013Z,103193.44
2019-02-25T04:20:26.532Z,103188.20
2019-02-25T04:22:55.044Z,103188.95
2019-02-25T04:25:23.522Z,103190.62
2019-02-25T04:27:52.043Z,103202.97
2019-02-25T04:30:20.512Z,103205.69
2019-02-25T04:32:48.945Z,103193.91
2019-02-25T04:35:17.395Z,103185.73
2019-02-25T04:37:45.899Z,103181.66
2019-02-25T04:40:15.328Z,103185.86
2019-02-25T04:42:43.751Z,103189.92
2019-02-25T04:45:17.530Z,103184.75
2019-02-25T04:47:46.244Z,103182.48
2019-02-25T04:50:14.897Z,103181.47
2019-02-25T04:52:43.419Z,103181.38
2019-02-25T04:55:13.900Z,103181.14
2019-02-25T04:57:42.715Z,103175.23
2019-02-25T05:00:24.861Z,103178.32
2019-02-25T05:02:53.295Z,103171.02
2019-02-25T05:05:21.731Z,103171.02
2019-02-25T05:07:50.317Z,103180.09
2019-02-25T05:10:18.763Z,103177.69
2019-02-25T05:12:51.893Z,103177.88
2019-02-25T05:15:24.681Z,103179.67
2019-02-25T05:17:53.140Z,103188.96
2019-02-25T05:20:21.612Z,103174.55
2019-02-25T05:22:50.151Z,103174.55
2019-02-25T05:25:18.678Z,103196.72
2019-02-25T05:27:47.124Z,103192.98
2019-02-25T05:30:16.699Z,103194.14
2019-02-25T05:32:45.155Z,103199.03
2019-02-25T05:35:14.155Z,103199.03
2019-02-25T05:37:42.775Z,103198.52
2019-02-25T05:40:16.175Z,103205.31
2019-02-25T05:42:44.708Z,103212.24
2019-02-25T05:45:14.276Z,103212.24
2019-02-25T05:47:42.753Z,103208.23
2019-02-25T05:50:13.983Z,103207.86
2019-02-25T05:52:42.820Z,103202.41
2019-02-25T05:55:15.150Z,103202.41
2019-02-25T05:57:43.604Z,103204.80
2019-02-25T06:00:16.917Z,103207.20
2019-02-25T06:02:45.341Z,103205.69
2019-02-25T06:05:13.795Z,103200.47
2019-02-25T06:07:42.268Z,103198.84
2019-02-25T06:10:12.378Z,103199.91
2019-02-25T06:12:40.918Z,103204.20
2019-02-25T06:15:16.271Z,103210.12
2019-02-25T06:17:45.015Z,103205.13
2019-02-25T06:20:15.917Z,103211.37
2019-02-25T06:22:44.353Z,103209.98
2019-02-25T06:25:15.156Z,103209.52
2019-02-25T06:27:43.588Z,103205.13
2019-02-25T06:30:22.822Z,103222.92
2019-02-25T06:32:51.606Z,103209.61
2019-02-25T06:35:20.068Z,103214.05
2019-02-25T06:37:48.596Z,103213.13
2019-02-25T06:40:23.360Z,103216.72
2019-02-25T06:42:51.835Z,103232.84
2019-02-25T06:45:25.580Z,103232.84
2019-02-25T06:47:54.121Z,103239.91
2019-02-25T06:50:22.625Z,103244.45
2019-02-25T06:52:51.127Z,103241.06
2019-02-25T06:55:19.667Z,103248.84
2019-02-25T06:57:48.202Z,103254.30
2019-02-25T07:00:19.640Z,103264.37
2019-02-25T07:02:48.112Z,103267.70
2019-02-25T07:05:18.315Z,103264.50
2019-02-25T07:07:50.880Z,103265.06
2019-02-25T07:10:37.089Z,103266.03
2019-02-25T07:13:15.896Z,103262.52
2019-02-25T07:15:54.732Z,103266.31
2019-02-25T07:18:27.676Z,103261.74
2019-02-25T07:20:57.988Z,103261.74
2019-02-25T07:23:37.761Z,103267.56
2019-02-25T07:26:07.985Z,103260.31
2019-02-25T07:28:50.069Z,103242.00
2019-02-25T07:31:32.551Z,103261.14
2019-02-25T07:34:02.665Z,103267.28
2019-02-25T07:36:49.291Z,103268.38
2019-02-25T07:39:19.402Z,103265.59
2019-02-25T07:42:01.351Z,103267.84
2019-02-25T07:44:31.495Z,103257.69
2019-02-25T07:47:10.639Z,103237.77
2019-02-25T07:49:46.499Z,103249.67
2019-02-25T07:52:16.586Z,103253.58
2019-02-25T07:54:52.700Z,103258.06
2019-02-25T07:57:22.794Z,103264.00
2019-02-25T08:00:11.084Z,103269.97
2019-02-25T08:02:56.221Z,103271.63
2019-02-25T08:05:26.399Z,103284.17
2019-02-25T08:07:56.557Z,103286.12
2019-02-25T08:10:26.655Z,103286.48
2019-02-25T08:13:12.924Z,103286.19
2019-02-25T08:15:59.049Z,103281.90
2019-02-25T08:18:29.622Z,103290.45
2019-02-25T08:21:02.412Z,103297.05
2019-02-25T08:23:32.672Z,103300.14
2019-02-25T08:26:08.768Z,103297.06
2019-02-25T08:28:38.862Z,103294.78
2019-02-25T08:31:11.793Z,103304.95
2019-02-25T08:33:42.080Z,103307.78
2019-02-25T08:36:18.145Z,103304.39
2019-02-25T08:38:59.844Z,103307.55
2019-02-25T08:41:39.007Z,103303.91
2019-02-25T08:44:21.007Z,103308.25
2019-02-25T08:46:51.120Z,103308.58
2019-02-25T08:49:24.416Z,103322.25
2019-02-25T08:51:52.866Z,103322.36
2019-02-25T08:54:21.328Z,103323.98
2019-02-25T08:56:49.846Z,103324.97
2019-02-25T08:59:18.288Z,103313.02
2019-02-25T09:01:46.777Z,103320.96
2019-02-25T09:04:15.229Z,103316.07
2019-02-25T09:06:43.675Z,103316.73
2019-02-25T09:09:12.701Z,103310.09
2019-02-25T09:11:41.216Z,103311.73
2019-02-25T09:14:09.669Z,103313.61
2019-02-25T09:16:38.134Z,103321.80
2019-02-25T09:19:06.585Z,103324.70
2019-02-25T09:21:35.012Z,103330.91
2019-02-25T09:24:03.457Z,103331.30
2019-02-25T09:26:31.950Z,103329.93
2019-02-25T09:29:00.405Z,103325.73
2019-02-25T09:31:28.900Z,103323.27
2019-02-25T09:33:57.569Z,103328.77
2019-02-25T09:36:26.020Z,103331.53
2019-02-25T09:38:56.553Z,103326.11
2019-02-25T09:41:29.858Z,103321.69
2019-02-25T09:43:54.998Z,103325.68
2019-02-25T09:46:23.586Z,103317.06
2019-02-25T09:48:52.026Z,103321.77
2019-02-25T09:51:20.472Z,103325.92
2019-02-25T09:53:48.958Z,103319.50
2019-02-25T09:56:17.508Z,103307.48
2019-02-25T09:58:45.980Z,103309.73
2019-02-25T10:01:14.728Z,103313.50
2019-02-25T10:03:43.253Z,103276.65
2019-02-25T10:06:12.960Z,103317.91
2019-02-25T10:08:41.647Z,103310.84
2019-02-25T10:11:10.107Z,103311.94
2019-02-25T10:13:38.524Z,103320.34
2019-02-25T10:16:06.988Z,103314.48
2019-02-25T10:18:35.455Z,103308.42
2019-02-25T10:21:03.907Z,103320.34
2019-02-25T10:23:32.374Z,103324.80
2019-02-25T10:26:00.834Z,103320.78
2019-02-25T10:28:29.291Z,103312.16
2019-02-25T10:30:57.767Z,103305.06
2019-02-25T10:33:26.233Z,103292.85
2019-02-25T10:35:54.996Z,103295.19
2019-02-25T10:38:23.525Z,103290.17
2019-02-25T10:40:53.782Z,103283.70
2019-02-25T10:43:22.240Z,103283.07
2019-02-25T10:45:50.721Z,103271.69
2019-02-25T10:48:19.867Z,103262.40
2019-02-25T10:50:55.796Z,103261.06
2019-02-25T10:53:20.420Z,103257.36
2019-02-25T10:55:58.530Z,103247.91
2019-02-25T10:58:28.998Z,103249.66
2019-02-25T11:00:57.315Z,103237.87
2019-02-25T11:03:25.757Z,103241.75
2019-02-25T11:05:56.175Z,103231.71
2019-02-25T11:08:24.601Z,103228.02
2019-02-25T11:10:54.960Z,103225.73
2019-02-25T11:13:23.528Z,103225.28
2019-02-25T11:15:52.138Z,103224.09
2019-02-25T11:18:23.597Z,103223.45
2019-02-25T11:20:50.814Z,103226.81
2019-02-25T11:23:19.949Z,103223.63
2019-02-25T11:25:51.355Z,103219.86
2019-02-25T11:28:25.926Z,103217.19
2019-02-25T11:30:53.771Z,103206.94
2019-02-25T11:33:23.183Z,103204.83
2019-02-25T11:35:52.646Z,103196.89
2019-02-25T11:38:21.079Z,103188.56
2019-02-25T11:40:49.533Z,103177.58
2019-02-25T11:43:18.906Z,103171.97
2019-02-25T11:45:48.248Z,103168.39
2019-02-25T11:48:16.707Z,103151.55
2019-02-25T11:50:45.223Z,103147.55
2019-02-25T11:53:13.691Z,103122.73
2019-02-25T11:55:42.162Z,103152.28
2019-02-25T11:58:10.635Z,103145.05
2019-02-25T12:00:39.863Z,103141.28
2019-02-25T12:03:08.582Z,103141.29
2019-02-25T12:05:37.099Z,103138.63
2019-02-25T12:08:06.162Z,103137.20
2019-02-25T12:10:34.616Z,103144.07
2019-02-25T12:13:03.060Z,103148.09
2019-02-25T12:15:31.538Z,103150.98
2019-02-25T12:18:00.069Z,103156.41
2019-02-25T12:20:28.508Z,103153.53
2019-02-25T12:22:57.015Z,103152.83
2019-02-25T12:25:26.080Z,103140.35
2019-02-25T12:27:54.571Z,103134.06
2019-02-25T12:30:27.579Z,103132.06
2019-02-25T12:32:56.104Z,103125.94
2019-02-25T12:35:24.642Z,103121.64
2019-02-25T12:37:53.097Z,103114.95
2019-02-25T12:40:22.707Z,103109.16
2019-02-25T12:42:51.212Z,103109.89
2019-02-25T12:45:19.675Z,103106.80
2019-02-25T12:47:48.130Z,103107.72
2019-02-25T12:50:17.895Z,103116.75
2019-02-25T12:52:46.333Z,103120.73
2019-02-25T12:55:16.820Z,103116.16
2019-02-25T12:57:45.469Z,103113.06
2019-02-25T13:00:17.050Z,103113.06
2019-02-25T13:02:45.508Z,103109.09
2019-02-25T13:05:18.117Z,103109.65
2019-02-25T13:07:46.884Z,103108.91
2019-02-25T13:10:16.696Z,103106.41
2019-02-25T13:12:45.193Z,103098.11
2019-02-25T13:15:17.884Z,103102.11
2019-02-25T13:17:46.502Z,103098.10
2019-02-25T13:20:17.620Z,103088.88
2019-02-25T13:22:46.072Z,103101.19
2019-02-25T13:25:17.163Z,103096.47
2019-02-25T13:27:45.639Z,103093.23
2019-02-25T13:30:16.009Z,103098.13
2019-02-25T13:32:44.510Z,103088.16
2019-02-25T13:35:14.427Z,103083.09
2019-02-25T13:37:43.228Z,103082.91
2019-02-25T13:40:18.306Z,103072.39
2019-02-25T13:42:46.956Z,103081.09
2019-02-25T13:45:20.808Z,103087.08
2019-02-25T13:47:49.630Z,103091.59
2019-02-25T13:50:18.830Z,103087.05
2019-02-25T13:52:48.184Z,103092.34
2019-02-25T13:55:21.840Z,103097.02
2019-02-25T13:57:50.316Z,103074.05
2019-02-25T14:00:26.648Z,103091.42
2019-02-25T14:02:55.118Z,103084.88
2019-02-25T14:05:24.351Z,103091.60
2019-02-25T14:07:52.832Z,103081.62
2019-02-25T14:10:21.478Z,103090.52
2019-02-25T14:12:49.997Z,103091.05
2019-02-25T14:15:25.309Z,103087.59
2019-02-25T14:17:53.830Z,103058.48
2019-02-25T14:20:26.463Z,103086.52
2019-02-25T14:22:54.916Z,103088.69
2019-02-25T14:25:28.677Z,103080.34
2019-02-25T14:27:57.689Z,103077.64
2019-02-25T14:30:26.990Z,103073.66
2019-02-25T14:32:56.426Z,103071.63
2019-02-25T14:35:28.540Z,103069.30
2019-02-25T14:38:05.075Z,103065.30
2019-02-25T14:40:32.348Z,103066.96
2019-02-25T14:43:03.279Z,103069.12
2019-02-25T14:45:33.516Z,103059.89
2019-02-25T14:48:03.224Z,103056.27
2019-02-25T14:50:31.282Z,103058.99
2019-02-25T14:53:01.235Z,103065.34
2019-02-25T14:55:30.274Z,103056.98
2019-02-25T14:58:02.123Z,103057.19
2019-02-25T15:00:32.768Z,103058.61
2019-02-25T15:03:00.061Z,103060.42
2019-02-25T15:05:28.900Z,103056.44
2019-02-25T15:07:57.737Z,103056.04
2019-02-25T15:10:29.086Z,103053.26
2019-02-25T15:12:58.654Z,103051.05
2019-02-25T15:15:26.621Z,103048.88
2019-02-25T15:17:55.160Z,103044.75
2019-02-25T15:20:26.083Z,103040.98
2019-02-25T15:22:54.337Z,103044.84
2019-02-25T15:25:22.793Z,103033.27
2019-02-25T15:27:51.250Z,103040.70
2019-02-25T15:30:30.430Z,103035.27
2019-02-25T15:32:59.869Z,103033.44
2019-02-25T15:35:31.773Z,103031.98
2019-02-25T15:38:00.496Z,103031.08
2019-02-25T15:40:29.420Z,103032.90
2019-02-25T15:43:02.897Z,103030.75
2019-02-25T15:45:35.458Z,103030.77
2019-02-25T15:48:04.657Z,103027.16
2019-02-25T15:50:33.279Z,103020.66
2019-02-25T15:53:03.307Z,103017.58
2019-02-25T15:55:31.944Z,103012.66
2019-02-25T15:58:00.501Z,103013.05
2019-02-25T16:00:32.133Z,103017.55
2019-02-25T16:03:01.965Z,103021.18
2019-02-25T16:05:34.198Z,103018.47
2019-02-25T16:08:03.343Z,103018.44
2019-02-25T16:10:31.851Z,103015.03
2019-02-25T16:13:02.328Z,103021.90
2019-02-25T16:15:31.834Z,103030.37
2019-02-25T16:18:02.359Z,103024.23
2019-02-25T16:20:32.529Z,103033.79
2019-02-25T16:23:04.776Z,103025.66
2019-02-25T16:25:34.331Z,103026.54
2019-02-25T16:28:02.768Z,103032.47
2019-02-25T16:30:31.323Z,103027.22
2019-02-25T16:33:01.812Z,103023.02
2019-02-25T16:35:30.055Z,103022.26
2019-02-25T16:38:00.312Z,103026.89
2019-02-25T16:40:30.879Z,103019.39
2019-02-25T16:42:59.798Z,103015.92
2019-02-25T16:45:34.669Z,103024.52
2019-02-25T16:47:59.378Z,103028.28
2019-02-25T16:50:27.836Z,103028.95
2019-02-25T16:52:56.654Z,103040.63
2019-02-25T16:55:27.682Z,103040.94
2019-02-25T16:57:56.321Z,103040.20
2019-02-25T17:00:30.020Z,103039.30
2019-02-25T17:03:01.327Z,103014.73
2019-02-25T17:05:29.481Z,103042.94
2019-02-25T17:07:57.976Z,103037.41
2019-02-25T17:10:29.122Z,103039.00
2019-02-25T17:12:56.756Z,103041.84
2019-02-25T17:15:26.861Z,103044.50
2019-02-25T17:17:58.285Z,103039.58
2019-02-25T17:20:27.793Z,103041.31
2019-02-25T17:22:56.049Z,103037.81
2019-02-25T17:25:26.838Z,103030.75
2019-02-25T17:27:55.085Z,103035.36
2019-02-25T17:30:25.152Z,103033.42
2019-02-25T17:32:53.674Z,103036.76
2019-02-25T17:35:26.088Z,103034.43
2019-02-25T17:37:56.263Z,103035.34
2019-02-25T17:40:24.288Z,103036.87
2019-02-25T17:42:54.543Z,103038.45
2019-02-25T17:45:29.924Z,103043.99
2019-02-25T17:47:58.788Z,103038.99
2019-02-25T17:50:30.273Z,103040.52
2019-02-25T17:53:00.793Z,103044.06
2019-02-25T17:55:31.632Z,103048.34
2019-02-25T17:58:01.043Z,103048.11
2019-02-25T18:00:36.747Z,103055.83
2019-02-25T18:03:06.303Z,103056.55
2019-02-25T18:05:36.349Z,103063.53
2019-02-25T18:08:08.121Z,103057.81
2019-02-25T18:10:36.651Z,103051.61
2019-02-25T18:13:08.183Z,103057.98
2019-02-25T18:15:35.803Z,103059.16
2019-02-25T18:18:07.028Z,103058.15
2019-02-25T18:20:36.600Z,103064.11
2019-02-25T18:23:06.005Z,103061.16
2019-02-25T18:25:34.444Z,103059.80
2019-02-25T18:28:04.439Z,103058.34
2019-02-25T18:30:33.580Z,103059.66
2019-02-25T18:33:05.164Z,103068.42
2019-02-25T18:35:34.526Z,103063.63
2019-02-25T18:38:06.541Z,103064.98
2019-02-25T18:40:35.593Z,103057.38
2019-02-25T18:43:04.460Z,103060.34
2019-02-25T18:45:35.491Z,103050.36
2019-02-25T18:48:04.027Z,103041.55
2019-02-25T18:50:33.564Z,103034.15
2019-02-25T18:53:02.201Z,103034.05
2019-02-25T18:55:33.542Z,103040.15
2019-02-25T18:58:01.341Z,103039.91
2019-02-25T19:00:35.394Z,103041.70
2019-02-25T19:03:04.863Z,103046.34
2019-02-25T19:05:33.845Z,103043.30
2019-02-25T19:08:04.445Z,103036.61
2019-02-25T19:10:33.132Z,103035.97
2019-02-25T19:13:01.796Z,103032.02
2019-02-25T19:15:30.364Z,103031.62
2019-02-25T19:17:58.937Z,103030.70
2019-02-25T19:20:27.778Z,103033.16
2019-02-25T19:23:02.590Z,103022.75
2019-02-25T19:25:28.934Z,103020.72
2019-02-25T19:27:58.724Z,103022.98
2019-02-25T19:30:29.374Z,103023.95
2019-02-25T19:32:57.747Z,103019.92
2019-02-25T19:35:28.692Z,103019.66
2019-02-25T19:37:56.870Z,103018.11
2019-02-25T19:40:25.643Z,103019.45
2019-02-25T19:42:56.782Z,103016.73
2019-02-25T19:45:25.318Z,103017.36
2019-02-25T19:47:57.240Z,103017.16
2019-02-25T19:50:27.196Z,103020.59
2019-02-25T19:52:54.375Z,103014.64
2019-02-25T19:55:23.615Z,103015.78
2019-02-25T19:57:52.204Z,103004.20
2019-02-25T20:00:30.414Z,103015.85
2019-02-25T20:03:05.575Z,103013.95
2019-02-25T20:05:33.211Z,103015.48
2019-02-25T20:08:01.359Z,103009.78
2019-02-25T20:10:30.744Z,103016.20
2019-02-25T20:12:59.480Z,103020.11
2019-02-25T20:15:28.212Z,103017.88
2019-02-25T20:17:56.676Z,103020.72
2019-02-25T20:20:26.897Z,103015.30
2019-02-25T20:22:57.329Z,103014.38
2019-02-25T20:25:27.049Z,103016.11
2019-02-25T20:27:57.479Z,103017.30
2019-02-25T20:30:28.295Z,103023.17
2019-02-25T20:32:58.534Z,103031.56
2019-02-25T20:35:28.982Z,103032.17
2019-02-25T20:37:58.022Z,103031.90
2019-02-25T20:40:28.713Z,103035.70
2019-02-25T20:42:58.770Z,103035.28
2019-02-25T20:45:32.644Z,103032.83
2019-02-25T20:48:01.931Z,103042.23
2019-02-25T20:50:30.711Z,103043.41
2019-02-25T20:53:05.042Z,103049.41
2019-02-25T20:55:31.490Z,103054.36
2019-02-25T20:58:00.133Z,103056.63
2019-02-25T21:00:28.564Z,103058.17
2019-02-25T21:02:57.090Z,103056.47
2019-02-25T21:05:27.390Z,103062.46
2019-02-25T21:07:59.153Z,103062.14
2019-02-25T21:10:29.350Z,103063.23
2019-02-25T21:12:57.176Z,103061.36
2019-02-25T21:15:26.752Z,103068.09
2019-02-25T21:17:58.954Z,103063.87
2019-02-25T21:20:28.346Z,103061.11
2019-02-25T21:22:57.949Z,103055.21
2019-02-25T21:25:26.978Z,103054.08
2019-02-25T21:27:59.192Z,103053.63
2019-02-25T21:30:26.524Z,103050.75
2019-02-25T21:32:57.165Z,103048.95
2019-02-25T21:35:27.620Z,103042.48
2019-02-25T21:37:55.362Z,103039.56
2019-02-25T21:40:29.416Z,103037.39
2019-02-25T21:42:57.085Z,103025.64
2019-02-25T21:45:27.542Z,103021.75
2019-02-25T21:47:58.842Z,103021.16
2019-02-25T21:50:30.719Z,103013.50
2019-02-25T21:52:56.707Z,103013.25
2019-02-25T21:55:27.846Z,103002.03
2019-02-25T21:57:57.222Z,103004.28
2019-02-25T22:00:32.020Z,102998.30
2019-02-25T22:02:59.025Z,102988.58
2019-02-25T22:05:27.437Z,102986.48
2019-02-25T22:07:57.734Z,102984.89
2019-02-25T22:10:26.113Z,102980.00
2019-02-25T22:12:54.638Z,102976.58
2019-02-25T22:15:23.155Z,102964.61
2019-02-25T22:17:53.422Z,102969.25
2019-02-25T22:20:24.296Z,102975.32
2019-02-25T22:22:56.743Z,102978.67
2019-02-25T22:25:23.385Z,102985.16
2019-02-25T22:27:52.022Z,102987.53
2019-02-25T22:30:20.777Z,102988.71
2019-02-25T22:32:49.273Z,102984.62
2019-02-25T22:35:17.712Z,102986.38
2019-02-25T22:37:49.200Z,102978.20
2019-02-25T22:40:17.658Z,102982.94
2019-02-25T22:42:47.864Z,102982.58
2019-02-25T22:45:22.268Z,102982.16
2019-02-25T22:47:50.750Z,102982.34
2019-02-25T22:50:19.254Z,102982.51
2019-02-25T22:52:51.290Z,102983.35
2019-02-25T22:55:20.190Z,102977.38
2019-02-25T22:57:50.553Z,102975.83
2019-02-25T23:00:43.343Z,102979.92
2019-02-25T23:03:15.246Z,102978.71
2019-02-25T23:05:43.604Z,102978.20
2019-02-25T23:08:15.100Z,102980.95
2019-02-25T23:10:44.427Z,102973.48
2019-02-25T23:13:13.520Z,102975.65
2019-02-25T23:15:44.155Z,102977.02
2019-02-25T23:18:14.275Z,102971.59
2019-02-25T23:20:42.415Z,102971.12
2019-02-25T23:23:10.874Z,102964.20
2019-02-25T23:25:39.354Z,102959.03
2019-02-25T23:28:07.821Z,102957.98
2019-02-25T23:30:39.094Z,102950.12
2019-02-25T23:33:07.931Z,102950.12
2019-02-25T23:35:40.768Z,102949.22
2019-02-25T23:38:06.966Z,102950.12
2019-02-25T23:40:37.670Z,102951.63
2019-02-25T23:43:07.501Z,102952.80
2019-02-25T23:45:37.812Z,102957.72
2019-02-25T23:48:06.820Z,102955.88
2019-02-25T23:50:36.291Z,102949.99
2019-02-25T23:53:04.746Z,102957.05
2019-02-25T23:55:33.226Z,102959.25
2019-02-25T23:58:01.707Z,102964.50
